Time;durP1;ratioP1;P1;durP2;ratioP2;P2;SDS_P1;SDS_P2;PMS_P1;PMS_P2;Temp;Humidity;BMP_temperature;BMP_pressure;BME280_temperature;BME280_humidity;BME280_pressure;Samples;Min_cycle;Max_cycle;Signal;HPM_P1;HPM_P2
2022/02/06 00:00:17;;;;;;;2.15;1.50;;;6.90;99.90;;;;;;4947891;28;20231;-52
2022/02/06 00:02:48;;;;;;;1.30;1.20;;;6.90;99.90;;;;;;4938574;29;20834;-51
2022/02/06 00:05:17;;;;;;;1.25;1.15;;;6.90;99.90;;;;;;4942965;28;20331;-50
2022/02/06 00:07:48;;;;;;;2.45;1.33;;;6.90;99.90;;;;;;4947376;28;20216;-51
2022/02/06 00:10:17;;;;;;;2.05;1.30;;;6.90;99.90;;;;;;4947725;28;20251;-51
2022/02/06 00:12:46;;;;;;;1.25;1.15;;;6.90;99.90;;;;;;4935019;28;20289;-51
2022/02/06 00:15:16;;;;;;;1.27;1.17;;;6.90;99.90;;;;;;4933008;28;20312;-51
2022/02/06 00:17:44;;;;;;;2.47;1.42;;;6.90;99.90;;;;;;4929239;29;20664;-51
2022/02/06 00:20:14;;;;;;;3.83;1.08;;;6.90;99.90;;;;;;4909504;28;20258;-51
2022/02/06 00:22:47;;;;;;;4.72;1.10;;;6.90;99.90;;;;;;4915208;29;20196;-51
2022/02/06 00:25:28;;;;;;;3.83;1.40;;;6.90;99.90;;;;;;4944721;28;20646;-51
2022/02/06 00:28:06;;;;;;;4.40;1.30;;;6.90;99.90;;;;;;4938523;29;20356;-50
2022/02/06 00:30:39;;;;;;;5.22;1.48;;;6.90;99.90;;;;;;4927857;28;20233;-51
2022/02/06 00:33:12;;;;;;;1.50;1.17;;;6.90;99.90;;;;;;4932539;28;20525;-51
2022/02/06 00:39:02;;;;;;;2.03;1.48;;;6.90;99.90;;;;;;4926176;29;20279;-50
2022/02/06 00:41:25;;;;;;;2.38;1.35;;;6.90;99.90;;;;;;4927792;28;20754;-51
2022/02/06 00:43:54;;;;;;;2.42;1.75;;;6.90;99.90;;;;;;4915965;29;20200;-51
2022/02/06 00:46:23;;;;;;;2.45;1.25;;;6.90;99.90;;;;;;4926962;28;20585;-52
2022/02/06 00:48:54;;;;;;;1.63;1.52;;;6.90;99.90;;;;;;4918688;29;20203;-52
2022/02/06 00:51:30;;;;;;;1.90;1.20;;;6.90;99.90;;;;;;4918949;28;20221;-51
2022/02/06 00:54:01;;;;;;;2.58;1.20;;;6.90;99.90;;;;;;4927761;29;20203;-51
2022/02/06 00:56:30;;;;;;;4.55;1.50;;;6.90;99.90;;;;;;4927442;28;20220;-52
2022/02/06 00:58:58;;;;;;;1.30;1.20;;;6.90;99.90;;;;;;4916099;29;20218;-50
2022/02/06 01:01:26;;;;;;;1.83;1.40;;;6.90;99.90;;;;;;4910192;28;20327;-52
2022/02/06 01:03:56;;;;;;;6.82;1.55;;;6.90;99.90;;;;;;4923815;28;20247;-51
2022/02/06 01:06:25;;;;;;;2.65;1.60;;;6.90;99.90;;;;;;4926804;28;20627;-52
2022/02/06 01:08:53;;;;;;;1.67;1.58;;;6.90;99.90;;;;;;4931454;28;20185;-52
2022/02/06 01:11:22;;;;;;;2.58;1.42;;;6.90;99.90;;;;;;4928386;28;20304;-51
2022/02/06 01:14:00;;;;;;;2.17;1.95;;;6.90;99.90;;;;;;4936202;29;20604;-50
2022/02/06 01:16:32;;;;;;;1.67;1.58;;;6.90;99.90;;;;;;4949581;28;20223;-52
2022/02/06 01:19:04;;;;;;;1.67;1.58;;;6.90;99.90;;;;;;4928131;29;20712;-51
2022/02/06 01:21:44;;;;;;;4.00;1.42;;;6.90;99.90;;;;;;4916867;28;20251;-51
2022/02/06 01:24:16;;;;;;;2.80;1.88;;;6.90;99.90;;;;;;4930355;28;20564;-51
2022/02/06 01:26:50;;;;;;;3.08;1.40;;;6.90;99.90;;;;;;4931027;29;20229;-52
2022/02/06 01:29:30;;;;;;;2.88;1.75;;;6.90;99.90;;;;;;4921581;28;20269;-51
2022/02/06 01:32:02;;;;;;;2.20;1.58;;;6.80;99.90;;;;;;4950362;28;20218;-50
2022/02/06 01:34:39;;;;;;;2.35;1.38;;;6.90;99.90;;;;;;4935748;28;20248;-51
2022/02/06 01:37:15;;;;;;;2.33;2.03;;;6.90;99.90;;;;;;4933014;29;20199;-52
2022/02/06 01:39:58;;;;;;;1.90;1.58;;;6.90;99.90;;;;;;4937574;28;20227;-50
2022/02/06 01:42:33;;;;;;;2.35;1.55;;;6.90;99.90;;;;;;4945274;29;20192;-51
2022/02/06 01:45:23;;;;;;;1.63;1.17;;;6.90;99.90;;;;;;4920716;28;20303;-52
2022/02/06 02:02:13;;;;;;;2.85;1.13;;;6.90;99.90;;;;;;4930710;28;20228;-52
2022/02/06 02:05:06;;;;;;;4.07;2.08;;;6.90;99.90;;;;;;4913734;28;20256;-50
2022/02/06 02:19:21;;;;;;;4.53;1.83;;;6.90;99.90;;;;;;4911833;29;21036;-52
2022/02/06 02:27:39;;;;;;;1.80;1.30;;;6.90;99.90;;;;;;4940936;28;20710;-50
2022/02/06 02:33:34;;;;;;;2.50;1.60;;;6.90;99.90;;;;;;4927989;29;20633;-51
2022/02/06 02:47:15;;;;;;;2.28;1.27;;;6.90;99.90;;;;;;4930121;29;20295;-51
2022/02/06 02:49:51;;;;;;;2.05;1.70;;;6.90;99.90;;;;;;4925268;28;20224;-51
2022/02/06 02:52:35;;;;;;;1.73;1.40;;;6.90;99.90;;;;;;4929965;29;20247;-51
2022/02/06 02:55:18;;;;;;;3.72;1.90;;;6.90;99.90;;;;;;4930584;28;20220;-51
2022/02/06 02:57:50;;;;;;;2.20;1.50;;;6.90;99.90;;;;;;4913749;29;20280;-51
2022/02/06 03:00:46;;;;;;;2.28;1.50;;;6.90;99.90;;;;;;4910851;28;20253;-52
2022/02/06 03:03:18;;;;;;;2.85;1.63;;;6.90;99.90;;;;;;4911348;28;20200;-52
2022/02/06 03:05:48;;;;;;;3.92;1.90;;;6.90;99.90;;;;;;4929714;28;20660;-52
2022/02/06 03:08:16;;;;;;;2.03;1.63;;;6.90;99.90;;;;;;4929429;29;20685;-51
2022/02/06 03:10:46;;;;;;;2.72;1.90;;;6.90;99.90;;;;;;4948561;28;20239;-52
2022/02/06 03:13:20;;;;;;;2.75;1.70;;;6.90;99.90;;;;;;4991363;28;20608;-51
2022/02/06 03:15:59;;;;;;;2.15;1.50;;;6.90;99.90;;;;;;4929000;28;20320;-51
2022/02/06 03:18:31;;;;;;;3.10;1.30;;;6.90;99.90;;;;;;4922726;29;20315;-51
2022/02/06 03:21:01;;;;;;;2.50;1.58;;;6.90;99.90;;;;;;4910104;28;20327;-52
2022/02/06 03:23:36;;;;;;;4.85;1.98;;;6.90;99.90;;;;;;4921679;29;20235;-52
2022/02/06 03:26:05;;;;;;;2.55;2.15;;;6.90;99.90;;;;;;4928652;28;20263;-51
2022/02/06 03:28:33;;;;;;;3.75;1.80;;;6.90;99.90;;;;;;4923105;29;20197;-52
2022/02/06 03:31:01;;;;;;;2.33;1.70;;;6.90;99.90;;;;;;4928698;28;20238;-50
2022/02/06 03:33:29;;;;;;;2.97;1.55;;;6.90;99.90;;;;;;4922065;29;20701;-52
2022/02/06 03:35:57;;;;;;;2.80;1.60;;;6.90;99.90;;;;;;4912440;28;20244;-51
2022/02/06 03:38:26;;;;;;;3.42;1.50;;;6.80;99.90;;;;;;4929120;29;20284;-51
2022/02/06 03:40:59;;;;;;;4.30;1.83;;;6.90;99.90;;;;;;4927250;29;20322;-52
2022/02/06 03:43:36;;;;;;;2.63;1.98;;;6.90;99.90;;;;;;4911098;29;20212;-51
2022/02/06 03:46:09;;;;;;;5.72;1.58;;;6.90;99.90;;;;;;4920332;28;20236;-51
2022/02/06 03:48:46;;;;;;;1.52;1.42;;;6.90;99.90;;;;;;4921273;29;20225;-50
2022/02/06 03:51:20;;;;;;;2.42;1.58;;;6.90;99.90;;;;;;4922083;28;20635;-50
2022/02/06 03:53:50;;;;;;;4.18;2.58;;;6.90;99.90;;;;;;4929259;29;20619;-52
2022/02/06 03:56:21;;;;;;;2.70;1.70;;;6.90;99.90;;;;;;4935118;28;20232;-52
2022/02/06 03:58:50;;;;;;;2.80;2.53;;;6.90;99.90;;;;;;4910037;29;20200;-52
2022/02/06 04:01:18;;;;;;;2.47;2.00;;;6.90;99.90;;;;;;4921857;28;20674;-51
2022/02/06 04:03:46;;;;;;;2.33;1.75;;;6.90;99.90;;;;;;4920451;29;20291;-51
2022/02/06 04:06:14;;;;;;;2.45;1.75;;;6.90;99.90;;;;;;4939566;28;20308;-60
2022/02/06 04:08:43;;;;;;;3.30;1.80;;;6.90;99.90;;;;;;4948046;28;20224;-51
2022/02/06 04:11:15;;;;;;;1.70;1.35;;;6.90;99.90;;;;;;4933183;28;20233;-51
2022/02/06 04:13:54;;;;;;;2.15;1.83;;;6.90;99.90;;;;;;4920799;29;20652;-52
2022/02/06 04:16:37;;;;;;;2.35;1.23;;;6.90;99.90;;;;;;4942396;28;20229;-52
2022/02/06 04:19:17;;;;;;;2.00;1.63;;;6.90;99.90;;;;;;4924597;29;20221;-52
2022/02/06 04:21:45;;;;;;;3.53;1.75;;;6.90;99.90;;;;;;4933865;29;20248;-51
2022/02/06 04:24:14;;;;;;;2.65;1.48;;;6.90;99.90;;;;;;4936932;28;20262;-51
2022/02/06 04:26:42;;;;;;;2.90;1.85;;;6.90;99.90;;;;;;4945575;29;20938;-51
2022/02/06 04:29:10;;;;;;;1.83;1.17;;;6.90;99.90;;;;;;4914752;28;20708;-51
2022/02/06 04:31:42;;;;;;;4.30;2.08;;;6.90;99.90;;;;;;4926189;28;20227;-51
2022/02/06 04:34:10;;;;;;;1.42;1.30;;;6.90;99.90;;;;;;4916667;28;20293;-51
2022/02/06 04:36:45;;;;;;;3.00;1.95;;;6.90;99.90;;;;;;4942205;28;20225;-51
2022/02/06 04:39:34;;;;;;;3.03;1.73;;;6.90;99.90;;;;;;4947932;28;20289;-51
2022/02/06 04:42:14;;;;;;;4.15;2.28;;;6.90;99.90;;;;;;4940761;28;20221;-51
2022/02/06 04:45:09;;;;;;;3.92;1.70;;;6.90;99.90;;;;;;4927822;28;20583;-51
2022/02/06 04:51:10;;;;;;;2.08;1.70;;;6.90;99.90;;;;;;4915664;28;20695;-51
2022/02/06 04:53:59;;;;;;;4.35;1.75;;;6.90;99.90;;;;;;4928491;29;20200;-51
2022/02/06 05:13:51;;;;;;;2.65;1.67;;;6.90;99.90;;;;;;4913919;29;20571;-52
2022/02/06 05:16:24;;;;;;;1.23;1.13;;;6.90;99.90;;;;;;4930917;28;20227;-52
2022/02/06 05:22:05;;;;;;;2.40;1.20;;;6.90;99.90;;;;;;4888916;29;20244;-52
2022/02/06 05:27:47;;;;;;;1.70;1.45;;;6.90;99.90;;;;;;4904584;29;20681;-51
2022/02/06 05:30:19;;;;;;;4.05;1.73;;;6.80;99.90;;;;;;4924198;28;20633;-52
2022/02/06 05:32:58;;;;;;;3.72;1.73;;;6.80;99.90;;;;;;4946283;29;20553;-51
2022/02/06 05:35:27;;;;;;;2.30;1.02;;;6.80;99.90;;;;;;4916721;28;20777;-51
2022/02/06 05:37:57;;;;;;;4.22;1.20;;;6.80;99.90;;;;;;4928291;29;20189;-51
2022/02/06 05:40:25;;;;;;;1.35;1.25;;;6.90;99.90;;;;;;4933666;28;20282;-51
2022/02/06 05:42:53;;;;;;;2.50;1.30;;;6.80;99.90;;;;;;4909268;29;20297;-52
2022/02/06 05:45:21;;;;;;;3.00;1.55;;;6.90;99.90;;;;;;4918861;28;20233;-50
2022/02/06 05:47:50;;;;;;;1.75;1.30;;;6.80;99.90;;;;;;4926977;28;20216;-52
2022/02/06 05:50:21;;;;;;;1.65;1.40;;;6.90;99.90;;;;;;4928723;28;20734;-51
2022/02/06 05:52:49;;;;;;;1.48;1.38;;;6.90;99.90;;;;;;4946958;28;20681;-50
2022/02/06 05:55:19;;;;;;;2.53;1.63;;;6.90;99.90;;;;;;4948739;28;20228;-50
2022/02/06 05:57:47;;;;;;;1.58;1.40;;;6.80;99.90;;;;;;4944052;29;20192;-51
2022/02/06 06:00:16;;;;;;;2.20;1.33;;;6.80;99.90;;;;;;4930399;28;20768;-51
2022/02/06 06:02:44;;;;;;;2.08;1.52;;;6.90;99.90;;;;;;4948901;28;20254;-51
2022/02/06 06:05:12;;;;;;;1.45;1.35;;;6.90;99.90;;;;;;4911771;28;20225;-52
2022/02/06 06:07:43;;;;;;;1.23;1.13;;;6.90;99.90;;;;;;4915258;29;20189;-51
2022/02/06 06:10:12;;;;;;;1.30;1.20;;;6.90;99.90;;;;;;4939227;28;20323;-51
2022/02/06 06:12:41;;;;;;;1.70;1.20;;;6.90;99.90;;;;;;4923650;28;20203;-52
2022/02/06 06:15:10;;;;;;;1.92;1.42;;;6.80;99.90;;;;;;4929313;28;20719;-51
2022/02/06 06:17:39;;;;;;;2.97;1.25;;;6.80;99.90;;;;;;4930876;29;20209;-51
2022/02/06 06:20:12;;;;;;;2.42;1.48;;;6.90;99.90;;;;;;4919504;28;20247;-50
2022/02/06 06:22:40;;;;;;;1.63;1.25;;;6.80;99.90;;;;;;4930763;29;20263;-51
2022/02/06 06:25:10;;;;;;;2.33;1.50;;;6.80;99.90;;;;;;4930670;28;20459;-52
2022/02/06 06:27:40;;;;;;;1.80;1.65;;;6.80;99.90;;;;;;4925353;29;20228;-51
2022/02/06 06:30:09;;;;;;;1.30;0.93;;;6.90;99.90;;;;;;4930254;28;20236;-52
2022/02/06 06:32:37;;;;;;;2.05;1.55;;;6.90;99.90;;;;;;4941568;29;20675;-51
2022/02/06 06:35:06;;;;;;;4.28;1.77;;;6.80;99.90;;;;;;4911276;28;20312;-52
2022/02/06 06:37:39;;;;;;;1.52;1.42;;;6.90;99.90;;;;;;4915900;29;20275;-51
2022/02/06 06:40:10;;;;;;;2.72;1.35;;;6.80;99.90;;;;;;4992396;28;20262;-52
2022/02/06 06:42:38;;;;;;;2.13;1.45;;;6.80;99.90;;;;;;4938037;28;20186;-51
2022/02/06 06:45:09;;;;;;;1.88;1.08;;;6.90;99.90;;;;;;4930794;28;20236;-51
2022/02/06 06:47:37;;;;;;;3.55;1.42;;;6.90;99.90;;;;;;4930688;29;20663;-51
2022/02/06 06:50:06;;;;;;;1.05;0.90;;;6.80;99.90;;;;;;4933720;28;20234;-52
2022/02/06 06:52:34;;;;;;;2.20;1.35;;;6.90;99.90;;;;;;4933992;29;20562;-51
2022/02/06 06:55:04;;;;;;;2.28;1.30;;;6.80;99.90;;;;;;4949536;28;20224;-51
2022/02/06 06:57:37;;;;;;;1.58;1.25;;;6.80;99.90;;;;;;4950186;28;20200;-51
2022/02/06 07:00:36;;;;;;;2.35;1.15;;;6.80;99.90;;;;;;4910966;28;20257;-52
2022/02/06 07:03:05;;;;;;;2.15;1.20;;;6.80;99.90;;;;;;4917149;29;20673;-50
2022/02/06 07:05:33;;;;;;;2.22;1.42;;;6.80;99.90;;;;;;4930280;28;20249;-51
2022/02/06 07:08:02;;;;;;;1.50;1.02;;;6.80;99.90;;;;;;4930607;29;20255;-51
2022/02/06 07:10:30;;;;;;;1.10;1.10;;;6.80;99.90;;;;;;4930296;28;20650;-51
2022/02/06 07:12:59;;;;;;;2.88;1.20;;;6.80;99.90;;;;;;4929615;29;20199;-50
2022/02/06 07:15:28;;;;;;;1.58;1.40;;;6.80;99.90;;;;;;4930258;28;20600;-50
2022/02/06 07:17:56;;;;;;;1.45;1.00;;;6.90;99.90;;;;;;4928164;28;20200;-52
2022/02/06 07:20:25;;;;;;;3.28;1.30;;;6.90;99.90;;;;;;4911664;28;20232;-51
2022/02/06 07:22:54;;;;;;;1.50;0.95;;;6.80;99.90;;;;;;4924339;29;20219;-51
2022/02/06 07:25:23;;;;;;;2.78;1.35;;;6.80;99.90;;;;;;4930403;28;20282;-51
2022/02/06 07:27:51;;;;;;;1.02;0.93;;;6.90;99.90;;;;;;4926317;29;20263;-51
2022/02/06 07:30:19;;;;;;;1.35;1.17;;;6.80;99.90;;;;;;4911850;28;20766;-50
2022/02/06 07:32:49;;;;;;;2.50;1.10;;;6.80;99.90;;;;;;4931872;29;20290;-51
2022/02/06 07:35:17;;;;;;;1.23;1.08;;;6.80;99.90;;;;;;4930543;28;20235;-51
2022/02/06 07:37:49;;;;;;;1.75;1.05;;;6.80;99.90;;;;;;4936732;28;20227;-50
2022/02/06 07:40:17;;;;;;;1.00;1.00;;;6.90;99.90;;;;;;4947349;28;20323;-50
2022/02/06 07:42:45;;;;;;;1.90;1.67;;;6.80;99.90;;;;;;4935509;28;20190;-52
2022/02/06 07:45:19;;;;;;;2.28;1.20;;;6.80;99.90;;;;;;4913565;28;20224;-51
2022/02/06 07:47:49;;;;;;;1.13;0.98;;;6.80;99.90;;;;;;4967545;28;20287;-51
2022/02/06 07:50:18;;;;;;;1.52;1.15;;;6.80;99.90;;;;;;4941492;28;20235;-51
2022/02/06 07:52:48;;;;;;;1.90;0.90;;;6.80;99.90;;;;;;4949204;29;20196;-50
2022/02/06 07:55:18;;;;;;;2.05;1.00;;;6.80;99.90;;;;;;4911005;28;20713;-51
2022/02/06 07:57:47;;;;;;;2.05;1.00;;;6.80;99.90;;;;;;4927071;29;20205;-51
2022/02/06 08:00:17;;;;;;;0.88;0.70;;;6.80;99.90;;;;;;4929380;28;20239;-53
2022/02/06 08:02:45;;;;;;;1.75;1.27;;;6.80;99.90;;;;;;4929567;28;20629;-50
2022/02/06 08:05:18;;;;;;;2.75;0.80;;;6.90;99.90;;;;;;4930738;28;20244;-52
2022/02/06 08:07:49;;;;;;;1.58;0.88;;;6.90;99.90;;;;;;4934349;28;20189;-52
2022/02/06 08:10:19;;;;;;;1.00;0.82;;;6.90;99.90;;;;;;4946770;28;20704;-51
2022/02/06 08:12:54;;;;;;;1.33;0.90;;;6.80;99.90;;;;;;4929704;28;20550;-51
2022/02/06 08:15:23;;;;;;;1.73;1.20;;;6.80;99.90;;;;;;4924442;28;20770;-51
2022/02/06 08:17:51;;;;;;;0.70;0.70;;;6.80;99.90;;;;;;4933575;29;20218;-52
2022/02/06 08:20:22;;;;;;;1.33;0.80;;;6.80;99.90;;;;;;4909434;28;20221;-51
2022/02/06 08:22:52;;;;;;;1.00;0.80;;;6.80;99.90;;;;;;4944453;28;20439;-52
2022/02/06 08:25:20;;;;;;;0.80;0.70;;;6.80;99.90;;;;;;4927121;28;20228;-52
2022/02/06 08:27:49;;;;;;;1.17;0.80;;;6.80;99.90;;;;;;4930196;29;20243;-52
2022/02/06 08:30:20;;;;;;;0.77;0.70;;;6.80;99.90;;;;;;4942249;28;20213;-51
2022/02/06 08:32:48;;;;;;;1.35;1.25;;;6.80;99.90;;;;;;4949022;28;20239;-52
2022/02/06 08:35:16;;;;;;;1.63;0.85;;;6.90;99.90;;;;;;4921401;28;20229;-51
2022/02/06 08:37:46;;;;;;;1.50;1.10;;;6.90;99.90;;;;;;4928703;29;20813;-52
2022/02/06 08:40:16;;;;;;;1.10;0.65;;;6.90;99.90;;;;;;4937780;28;20224;-52
2022/02/06 08:42:46;;;;;;;1.02;0.75;;;6.90;99.90;;;;;;4941595;29;20249;-51
2022/02/06 08:45:15;;;;;;;1.20;0.80;;;6.80;99.90;;;;;;4934786;28;20315;-52
2022/02/06 08:47:46;;;;;;;1.35;0.90;;;6.80;99.90;;;;;;4921015;29;20562;-51
2022/02/06 08:50:15;;;;;;;0.80;0.80;;;6.80;99.90;;;;;;4925153;28;20501;-52
2022/02/06 08:52:47;;;;;;;1.75;0.85;;;6.90;99.90;;;;;;4918902;29;20193;-51
2022/02/06 08:55:15;;;;;;;0.70;0.70;;;6.90;99.90;;;;;;4936315;28;20438;-50
2022/02/06 08:57:47;;;;;;;1.35;0.90;;;6.80;99.90;;;;;;4930582;28;20204;-50
2022/02/06 09:00:17;;;;;;;1.23;0.90;;;6.90;99.90;;;;;;4924599;28;20238;-51
2022/02/06 09:02:46;;;;;;;2.28;0.85;;;6.80;99.90;;;;;;4944799;28;20602;-51
2022/02/06 09:05:14;;;;;;;4.15;0.95;;;6.80;99.90;;;;;;4929537;28;20254;-50
2022/02/06 09:07:46;;;;;;;1.10;0.80;;;6.90;99.90;;;;;;4931742;29;20279;-52
2022/02/06 09:10:16;;;;;;;0.70;0.50;;;6.90;99.90;;;;;;4927749;28;20290;-51
2022/02/06 09:12:50;;;;;;;2.05;1.55;;;6.90;99.90;;;;;;4925774;29;20621;-50
2022/02/06 09:15:19;;;;;;;0.70;0.60;;;6.90;99.90;;;;;;4944180;28;20224;-51
2022/02/06 09:17:48;;;;;;;1.95;0.80;;;6.90;99.90;;;;;;4943994;28;20215;-52
2022/02/06 09:20:19;;;;;;;1.00;0.90;;;6.90;99.90;;;;;;4907691;28;20259;-50
2022/02/06 09:22:52;;;;;;;0.68;0.57;;;6.90;99.90;;;;;;4927591;29;20201;-52
2022/02/06 09:25:21;;;;;;;1.33;0.50;;;6.90;99.90;;;;;;4944973;28;20729;-51
2022/02/06 09:27:50;;;;;;;0.70;0.60;;;6.90;99.90;;;;;;4928531;28;20196;-52
2022/02/06 09:30:25;;;;;;;2.80;0.93;;;6.90;99.90;;;;;;4940324;28;20638;-51
2022/02/06 09:35:25;;;;;;;0.65;0.65;;;6.90;99.90;;;;;;4927588;28;20231;-51
2022/02/06 09:37:56;;;;;;;1.33;0.70;;;6.90;99.90;;;;;;4931473;29;20208;-51
2022/02/06 09:40:31;;;;;;;1.17;0.68;;;6.90;99.90;;;;;;4943122;28;20227;-50
2022/02/06 09:43:02;;;;;;;0.70;0.70;;;6.90;99.90;;;;;;4924822;28;20224;-51
2022/02/06 09:45:33;;;;;;;0.98;0.90;;;6.90;99.90;;;;;;4920545;28;20217;-51
2022/02/06 09:48:02;;;;;;;0.98;0.82;;;6.90;99.90;;;;;;4927523;29;20612;-52
2022/02/06 09:50:30;;;;;;;0.80;0.60;;;6.90;99.90;;;;;;4937487;28;20219;-51
2022/02/06 09:53:07;;;;;;;1.27;0.80;;;6.90;99.90;;;;;;4937830;29;20275;-51
2022/02/06 09:55:36;;;;;;;3.85;0.80;;;6.90;99.90;;;;;;4954298;28;20209;-50
2022/02/06 09:58:17;;;;;;;0.73;0.65;;;6.90;99.90;;;;;;4924068;29;20189;-50
2022/02/06 10:00:47;;;;;;;0.60;0.55;;;6.90;99.90;;;;;;4911193;28;20310;-52
2022/02/06 10:03:16;;;;;;;0.80;0.57;;;6.90;99.90;;;;;;4924291;28;20194;-50
2022/02/06 10:05:48;;;;;;;0.60;0.40;;;6.90;99.90;;;;;;4922208;28;20208;-50
2022/02/06 10:08:28;;;;;;;1.40;0.80;;;6.90;99.90;;;;;;4929977;29;20203;-51
2022/02/06 10:11:00;;;;;;;1.48;0.70;;;6.90;99.90;;;;;;4923938;28;20247;-51
2022/02/06 10:13:28;;;;;;;0.68;0.65;;;6.90;99.90;;;;;;4932575;29;20661;-51
2022/02/06 10:15:57;;;;;;;0.70;0.45;;;6.90;99.90;;;;;;4933403;28;20310;-51
2022/02/06 10:18:27;;;;;;;0.90;0.60;;;6.90;99.90;;;;;;4936971;29;20209;-51
2022/02/06 10:20:57;;;;;;;1.27;0.60;;;6.90;99.90;;;;;;4930552;28;20238;-51
2022/02/06 10:23:35;;;;;;;0.70;0.55;;;6.90;99.90;;;;;;4947149;28;20189;-51
2022/02/06 10:26:10;;;;;;;0.73;0.52;;;6.80;99.90;;;;;;4934811;28;20228;-51
2022/02/06 10:28:43;;;;;;;0.93;0.65;;;6.90;99.90;;;;;;4934320;29;20187;-51
2022/02/06 10:31:16;;;;;;;1.48;0.70;;;6.90;99.90;;;;;;4948215;28;20226;-51
2022/02/06 10:33:47;;;;;;;0.70;0.70;;;6.90;99.90;;;;;;4930587;29;20709;-51
2022/02/06 10:36:22;;;;;;;1.25;0.50;;;6.90;99.90;;;;;;4930942;28;20316;-51
2022/02/06 10:39:01;;;;;;;0.88;0.52;;;6.90;99.90;;;;;;4930134;29;20196;-52
2022/02/06 10:41:29;;;;;;;1.60;0.70;;;6.90;99.90;;;;;;4928529;28;20228;-51
2022/02/06 10:44:01;;;;;;;0.80;0.68;;;6.90;99.90;;;;;;4919501;29;20460;-51
2022/02/06 10:46:31;;;;;;;1.35;0.50;;;6.90;99.90;;;;;;4961345;28;20314;-52
2022/02/06 10:49:02;;;;;;;1.00;0.75;;;6.90;99.90;;;;;;4936384;29;20308;-51
2022/02/06 10:51:39;;;;;;;1.02;0.55;;;6.90;99.90;;;;;;4929449;28;20598;-51
2022/02/06 10:54:10;;;;;;;0.73;0.63;;;6.90;99.90;;;;;;4948216;29;20204;-51
2022/02/06 10:56:59;;;;;;;1.00;0.63;;;6.90;99.90;;;;;;4930785;28;20220;-51
2022/02/06 10:59:28;;;;;;;0.95;0.52;;;6.90;99.90;;;;;;4945297;28;20283;-51
2022/02/06 11:01:57;;;;;;;0.50;0.45;;;6.90;99.90;;;;;;4939304;28;20197;-51
2022/02/06 11:04:32;;;;;;;0.60;0.60;;;6.90;99.90;;;;;;4920585;28;20720;-51
2022/02/06 11:07:13;;;;;;;0.88;0.60;;;6.90;99.90;;;;;;4928745;28;20203;-50
2022/02/06 11:09:44;;;;;;;0.70;0.50;;;6.90;99.90;;;;;;4930859;28;20245;-51
2022/02/06 11:12:15;;;;;;;0.90;0.75;;;6.90;99.90;;;;;;4934072;28;20298;-52
2022/02/06 11:14:48;;;;;;;0.70;0.70;;;6.90;99.90;;;;;;4926055;28;20288;-51
2022/02/06 11:17:20;;;;;;;1.80;0.55;;;6.90;99.90;;;;;;4933856;29;20204;-52
2022/02/06 11:20:00;;;;;;;0.50;0.40;;;6.90;99.90;;;;;;4937117;28;20219;-50
2022/02/06 11:22:29;;;;;;;0.60;0.40;;;6.90;99.90;;;;;;4948695;28;20196;-51
2022/02/06 11:25:01;;;;;;;0.93;0.65;;;6.80;99.90;;;;;;4936175;28;20242;-50
2022/02/06 11:27:29;;;;;;;0.55;0.52;;;6.80;99.90;;;;;;4942940;29;20200;-51
2022/02/06 11:29:57;;;;;;;0.70;0.50;;;6.90;99.90;;;;;;4910768;28;20640;-51
2022/02/06 11:32:27;;;;;;;0.80;0.60;;;6.90;99.90;;;;;;4937824;29;20208;-51
2022/02/06 11:34:58;;;;;;;0.60;0.50;;;6.90;99.90;;;;;;4921019;28;20241;-51
2022/02/06 11:43:52;;;;;;;0.80;0.70;;;6.90;99.90;;;;;;4920958;29;20207;-52
2022/02/06 11:46:30;;;;;;;0.80;0.50;;;6.90;99.90;;;;;;4923242;28;20230;-51
2022/02/06 11:49:08;;;;;;;0.60;0.40;;;6.90;99.90;;;;;;4930652;28;20200;-50
2022/02/06 11:51:36;;;;;;;0.88;0.45;;;6.90;99.90;;;;;;4937498;28;20232;-51
2022/02/06 11:54:27;;;;;;;0.60;0.60;;;6.90;99.90;;;;;;4927909;29;20203;-51
2022/02/06 11:57:24;;;;;;;2.80;0.63;;;6.90;99.90;;;;;;4932758;28;20217;-51
2022/02/06 12:00:18;;;;;;;0.68;0.47;;;6.90;99.90;;;;;;4927884;28;20608;-52
2022/02/06 12:02:50;;;;;;;0.50;0.30;;;6.90;99.90;;;;;;4927449;29;20208;-50
2022/02/06 12:05:26;;;;;;;0.80;0.68;;;6.90;99.90;;;;;;4926713;28;20716;-52
2022/02/06 12:08:07;;;;;;;0.80;0.40;;;6.90;99.90;;;;;;4944295;29;20202;-51
2022/02/06 12:11:15;;;;;;;0.80;0.50;;;6.90;99.90;;;;;;4937240;28;20212;-50
2022/02/06 12:13:46;;;;;;;2.03;1.25;;;6.90;99.90;;;;;;4923907;29;20193;-52
2022/02/06 12:16:26;;;;;;;1.35;0.50;;;6.90;99.90;;;;;;4927935;28;20229;-50
2022/02/06 12:18:55;;;;;;;0.70;0.40;;;6.90;99.90;;;;;;4919119;29;20213;-51
2022/02/06 12:21:25;;;;;;;0.50;0.40;;;6.90;99.90;;;;;;4908399;28;20657;-51
2022/02/06 12:24:09;;;;;;;0.65;0.50;;;6.90;99.90;;;;;;4910810;29;20197;-52
2022/02/06 12:26:43;;;;;;;1.17;0.50;;;6.90;99.90;;;;;;4913983;28;20228;-51
2022/02/06 12:29:23;;;;;;;2.40;0.63;;;6.90;99.90;;;;;;4929080;28;20275;-50
2022/02/06 12:31:59;;;;;;;0.50;0.40;;;6.90;99.90;;;;;;4938374;28;20312;-51
2022/02/06 12:37:30;;;;;;;2.75;0.50;;;6.90;99.90;;;;;;4928302;28;20257;-51
2022/02/06 12:40:02;;;;;;;0.57;0.50;;;6.90;99.90;;;;;;4927423;28;20229;-51
2022/02/06 12:42:33;;;;;;;1.05;0.30;;;6.90;99.90;;;;;;4921765;28;20485;-52
2022/02/06 12:45:07;;;;;;;0.60;0.40;;;6.90;99.90;;;;;;4927675;28;20244;-52
2022/02/06 12:47:40;;;;;;;0.98;0.40;;;6.90;99.90;;;;;;4928323;29;20279;-52
2022/02/06 12:50:23;;;;;;;0.60;0.50;;;6.90;99.90;;;;;;4927537;28;20224;-50
2022/02/06 12:52:53;;;;;;;0.68;0.50;;;6.90;99.90;;;;;;4927436;29;20274;-51
2022/02/06 12:55:26;;;;;;;0.73;0.40;;;6.90;99.90;;;;;;4919826;28;20227;-51
2022/02/06 12:57:56;;;;;;;0.60;0.57;;;6.90;99.90;;;;;;4922341;29;20292;-51
2022/02/06 13:00:33;;;;;;;0.60;0.40;;;6.90;99.90;;;;;;4939225;28;20229;-51
2022/02/06 13:03:22;;;;;;;1.98;1.48;;;6.90;99.90;;;;;;4941745;28;20632;-51
2022/02/06 13:05:56;;;;;;;0.68;0.47;;;6.90;99.90;;;;;;4926584;28;20586;-52
2022/02/06 13:08:24;;;;;;;0.80;0.50;;;6.90;99.90;;;;;;4930823;29;20200;-51
2022/02/06 13:10:57;;;;;;;0.98;0.70;;;6.90;99.90;;;;;;4911694;28;20788;-52
2022/02/06 13:13:32;;;;;;;0.70;0.50;;;6.90;99.90;;;;;;4928663;28;20215;-50
2022/02/06 13:16:35;;;;;;;0.50;0.40;;;6.90;99.90;;;;;;4942610;28;20227;-51
2022/02/06 13:22:06;;;;;;;1.25;0.40;;;6.90;99.90;;;;;;4934001;29;20790;-50
2022/02/06 13:24:51;;;;;;;0.77;0.60;;;6.90;99.90;;;;;;4949939;28;20200;-51
2022/02/06 13:27:41;;;;;;;0.50;0.40;;;6.90;99.90;;;;;;4929746;28;20295;-51
2022/02/06 13:30:21;;;;;;;0.50;0.50;;;6.90;99.90;;;;;;4936364;28;20232;-51
2022/02/06 13:33:07;;;;;;;0.80;0.60;;;6.90;99.90;;;;;;4920009;28;20216;-51
2022/02/06 13:35:43;;;;;;;0.93;0.75;;;6.90;99.90;;;;;;4933092;28;20214;-50
2022/02/06 13:38:17;;;;;;;0.50;0.40;;;6.90;99.90;;;;;;4931679;29;20270;-52
2022/02/06 13:40:49;;;;;;;0.60;0.40;;;6.90;99.90;;;;;;4930837;28;20708;-50
2022/02/06 13:43:20;;;;;;;0.60;0.40;;;7.00;99.90;;;;;;4930209;29;20262;-52
2022/02/06 13:45:56;;;;;;;0.90;0.57;;;7.00;99.90;;;;;;4930781;28;20243;-52
2022/02/06 13:48:26;;;;;;;1.00;0.88;;;6.90;99.90;;;;;;4926457;29;20188;-51
2022/02/06 13:50:58;;;;;;;0.70;0.60;;;6.90;99.90;;;;;;4912854;28;20237;-51
2022/02/06 13:53:29;;;;;;;0.65;0.50;;;6.90;99.90;;;;;;4930902;29;20232;-49
2022/02/06 13:56:03;;;;;;;1.25;0.60;;;6.90;99.90;;;;;;4938277;28;20224;-51
2022/02/06 13:58:32;;;;;;;1.40;0.50;;;6.90;99.90;;;;;;4914101;29;20308;-52
2022/02/06 14:01:02;;;;;;;0.75;0.60;;;6.90;99.90;;;;;;4940253;28;20241;-52
2022/02/06 14:03:46;;;;;;;2.80;0.70;;;6.90;99.90;;;;;;4928469;29;20712;-51
2022/02/06 14:06:18;;;;;;;0.80;0.50;;;6.90;99.90;;;;;;4946925;28;20240;-51
2022/02/06 14:09:13;;;;;;;0.75;0.50;;;6.90;99.90;;;;;;4933930;28;20568;-52
2022/02/06 14:11:58;;;;;;;0.80;0.60;;;6.90;99.90;;;;;;4921125;28;20228;-51
2022/02/06 14:14:27;;;;;;;0.60;0.50;;;6.90;99.90;;;;;;4936982;28;20189;-52
2022/02/06 14:17:18;;;;;;;0.50;0.40;;;6.90;99.90;;;;;;4936497;29;20699;-51
2022/02/06 14:19:48;;;;;;;1.35;0.70;;;6.90;99.90;;;;;;4915866;28;20236;-51
2022/02/06 14:22:28;;;;;;;1.02;0.60;;;6.90;99.90;;;;;;4928636;29;20240;-52
2022/02/06 14:24:59;;;;;;;0.50;0.50;;;6.90;99.90;;;;;;4928824;28;20232;-50
2022/02/06 14:27:36;;;;;;;0.60;0.50;;;6.90;99.90;;;;;;4935390;29;20187;-52
2022/02/06 14:30:12;;;;;;;0.60;0.43;;;6.90;99.90;;;;;;4924295;28;20599;-51
2022/02/06 14:33:01;;;;;;;0.52;0.52;;;6.90;99.90;;;;;;4948623;28;20315;-51
2022/02/06 14:35:43;;;;;;;1.05;0.90;;;6.90;99.90;;;;;;4977771;28;20694;-51
2022/02/06 14:38:19;;;;;;;0.60;0.50;;;6.90;99.90;;;;;;5030665;28;20193;-51
2022/02/06 14:40:53;;;;;;;1.48;0.60;;;6.90;99.90;;;;;;4957498;28;20229;-51
2022/02/06 14:43:44;;;;;;;0.47;0.40;;;6.90;99.90;;;;;;4944105;29;20196;-51
2022/02/06 14:46:13;;;;;;;1.40;0.52;;;6.90;99.90;;;;;;4951787;28;20231;-51
2022/02/06 14:48:41;;;;;;;1.85;0.50;;;6.90;99.90;;;;;;4926094;29;20190;-51
2022/02/06 14:51:20;;;;;;;0.63;0.40;;;6.90;99.90;;;;;;4945304;28;20704;-51
2022/02/06 14:53:48;;;;;;;0.85;0.50;;;6.90;99.90;;;;;;4948810;28;20798;-52
2022/02/06 14:56:17;;;;;;;1.45;0.60;;;6.90;99.90;;;;;;4936177;28;20217;-52
2022/02/06 14:58:47;;;;;;;1.60;0.68;;;6.90;99.90;;;;;;4925722;29;20225;-51